createdAt,value
2023-01-23T00:02:40.458Z,1521
2023-01-23T00:07:59.128Z,1526
2023-01-23T00:13:17.472Z,1522
2023-01-23T00:18:35.921Z,1585
2023-01-23T00:23:54.353Z,1587
2023-01-23T00:29:12.820Z,1553
2023-01-23T00:34:31.690Z,1523
2023-01-23T00:39:50.010Z,1516
2023-01-23T00:45:08.342Z,1531
2023-01-23T00:50:26.652Z,1560
2023-01-23T00:55:45.346Z,1569
2023-01-23T01:01:04.020Z,1586
2023-01-23T01:06:22.330Z,1593
2023-01-23T01:11:40.791Z,1608
2023-01-23T01:16:43.553Z,1614
2023-01-23T01:22:02.565Z,1607
2023-01-23T01:27:20.693Z,1610
2023-01-23T01:32:39.355Z,1605
2023-01-23T01:37:57.936Z,1608
2023-01-23T01:43:16.307Z,1594
2023-01-23T01:48:35.449Z,1579
2023-01-23T01:53:54.071Z,1557
2023-01-23T01:59:12.415Z,1565
2023-01-23T02:04:31.027Z,1578
2023-01-23T02:09:49.351Z,1571
2023-01-23T02:15:07.703Z,1553
2023-01-23T02:20:26.607Z,1536
2023-01-23T02:25:44.939Z,1524
2023-01-23T02:31:03.672Z,1515
2023-01-23T02:36:23.118Z,1508
2023-01-23T02:41:41.974Z,1508
2023-01-23T02:47:00.847Z,1524
2023-01-23T02:52:19.167Z,1516
2023-01-23T02:57:37.822Z,1512
2023-01-23T03:02:56.262Z,1504
2023-01-23T03:08:14.929Z,1485
2023-01-23T03:13:33.241Z,1497
2023-01-23T03:18:54.519Z,1495
2023-01-23T03:24:13.570Z,1468
2023-01-23T03:29:32.296Z,1458
2023-01-23T03:34:50.761Z,1456
2023-01-23T03:40:09.193Z,1463
2023-01-23T03:45:27.283Z,1472
2023-01-23T03:50:45.966Z,1467
2023-01-23T03:56:04.673Z,1458
2023-01-23T04:01:22.942Z,1459
2023-01-23T04:06:41.379Z,1463
2023-01-23T04:12:00.237Z,1457
2023-01-23T04:17:18.843Z,1464
2023-01-23T04:22:37.370Z,1457
2023-01-23T04:27:55.704Z,1442
2023-01-23T04:33:14.017Z,1430
2023-01-23T04:38:32.131Z,1427
2023-01-23T04:43:50.251Z,1440
2023-01-23T04:49:08.858Z,1434
2023-01-23T04:54:27.200Z,1391
2023-01-23T04:59:45.582Z,1333
2023-01-23T05:05:04.495Z,1305
2023-01-23T05:10:23.339Z,1275
2023-01-23T05:15:42.192Z,1252
2023-01-23T05:21:01.094Z,1251
2023-01-23T05:26:19.179Z,1235
2023-01-23T05:31:37.388Z,1219
2023-01-23T05:36:56.239Z,1218
2023-01-23T05:42:14.734Z,1230
2023-01-23T05:47:33.109Z,1255
2023-01-23T05:52:51.469Z,1263
2023-01-23T05:58:09.841Z,1202
2023-01-23T06:03:28.757Z,1180
2023-01-23T06:08:47.417Z,1170
2023-01-23T06:14:06.089Z,1163
2023-01-23T06:19:24.683Z,1156
2023-01-23T06:24:43.582Z,1152
2023-01-23T06:30:02.032Z,1145
2023-01-23T06:35:20.929Z,1126
2023-01-23T06:40:40.646Z,1114
2023-01-23T06:45:59.314Z,1079
2023-01-23T06:51:17.716Z,1057
2023-01-23T06:56:36.473Z,1043
2023-01-23T07:01:55.141Z,1031
2023-01-23T07:07:14.251Z,1024
2023-01-23T07:12:17.517Z,1049
2023-01-23T07:17:35.907Z,1045
2023-01-23T07:22:54.690Z,1040
2023-01-23T07:28:13.372Z,1039
2023-01-23T07:33:32.105Z,1034
2023-01-23T07:38:51.171Z,1032
2023-01-23T07:44:09.540Z,1018
2023-01-23T07:49:28.231Z,1015
2023-01-23T07:54:46.833Z,1004
2023-01-23T08:00:05.208Z,985
2023-01-23T08:05:23.633Z,976
2023-01-23T08:10:42.248Z,966
2023-01-23T08:16:01.203Z,959
2023-01-23T08:21:20.052Z,960
2023-01-23T08:26:38.567Z,967
2023-01-23T08:31:56.946Z,969
2023-01-23T08:36:59.631Z,968
2023-01-23T08:42:18.091Z,972
2023-01-23T08:47:37.108Z,970
2023-01-23T08:52:55.285Z,970
2023-01-23T08:58:14.428Z,964
2023-01-23T09:03:33.026Z,963
2023-01-23T09:08:52.009Z,953
2023-01-23T09:14:10.338Z,944
2023-01-23T09:19:29.210Z,934
2023-01-23T09:24:47.846Z,911
2023-01-23T09:30:06.141Z,879
2023-01-23T09:35:25.100Z,872
2023-01-23T09:40:43.503Z,863
2023-01-23T09:46:01.931Z,855
2023-01-23T09:51:04.740Z,846
2023-01-23T09:56:23.446Z,831
2023-01-23T10:01:41.826Z,827
2023-01-23T10:07:00.746Z,828
2023-01-23T10:12:19.354Z,822
2023-01-23T10:17:38.008Z,818
2023-01-23T10:22:56.607Z,813
2023-01-23T10:28:16.391Z,808
2023-01-23T10:33:34.952Z,803
2023-01-23T10:38:53.822Z,803
2023-01-23T10:43:56.430Z,803
2023-01-23T10:49:14.665Z,793
2023-01-23T10:54:33.925Z,799
2023-01-23T10:59:52.647Z,797
2023-01-23T11:05:11.420Z,795
2023-01-23T11:10:14.371Z,797
2023-01-23T11:15:33.365Z,800
2023-01-23T11:20:51.584Z,812
2023-01-23T11:26:10.202Z,806
2023-01-23T11:31:28.679Z,804
2023-01-23T11:36:47.944Z,813
2023-01-23T11:42:06.534Z,813
2023-01-23T11:47:28.401Z,808
2023-01-23T11:52:31.204Z,792
2023-01-23T11:57:49.926Z,798
2023-01-23T12:03:08.887Z,806
2023-01-23T12:08:26.959Z,800
2023-01-23T12:13:45.409Z,793
2023-01-23T12:19:04.356Z,780
2023-01-23T12:24:23.260Z,773
2023-01-23T12:29:41.326Z,762
2023-01-23T12:34:59.715Z,763
2023-01-23T12:40:18.188Z,867
2023-01-23T12:45:37.338Z,815
2023-01-23T12:50:56.146Z,784
2023-01-23T12:56:16.183Z,765
2023-01-23T13:01:34.452Z,743
2023-01-23T13:06:52.970Z,726
2023-01-23T13:12:14.910Z,715
2023-01-23T13:17:33.546Z,705
2023-01-23T13:22:52.470Z,697
2023-01-23T13:28:11.114Z,690
2023-01-23T13:33:29.822Z,740
2023-01-23T13:38:48.438Z,722
2023-01-23T13:44:06.821Z,709
2023-01-23T13:49:25.661Z,699
2023-01-23T13:54:44.320Z,690
2023-01-23T14:00:02.978Z,686
2023-01-23T14:05:21.590Z,676
2023-01-23T14:10:40.100Z,667
2023-01-23T14:15:58.485Z,665
2023-01-23T14:21:18.632Z,660
2023-01-23T14:26:39.943Z,656
2023-01-23T14:31:58.131Z,665
2023-01-23T14:37:17.310Z,673
2023-01-23T14:42:35.772Z,677
2023-01-23T14:48:04.688Z,681
2023-01-23T14:53:25.933Z,684
2023-01-23T14:58:44.537Z,689
2023-01-23T15:04:02.952Z,694
2023-01-23T15:09:21.418Z,699
2023-01-23T15:14:40.581Z,706
2023-01-23T15:19:59.284Z,704
2023-01-23T15:25:17.936Z,710
2023-01-23T15:30:37.409Z,719
2023-01-23T15:35:56.008Z,720
2023-01-23T15:41:17.319Z,724
2023-01-23T15:46:52.940Z,732
2023-01-23T15:52:11.523Z,735
2023-01-23T15:57:31.571Z,741
2023-01-23T16:02:56.532Z,744
2023-01-23T16:08:00.996Z,764
2023-01-23T16:13:22.180Z,774
2023-01-23T16:18:40.638Z,803
2023-01-23T16:23:59.428Z,837
2023-01-23T16:29:13.369Z,871
2023-01-23T16:34:32.415Z,886
2023-01-23T16:39:51.210Z,893
2023-01-23T16:45:09.587Z,879
2023-01-23T16:50:28.615Z,855
2023-01-23T16:55:46.968Z,840
2023-01-23T17:01:06.404Z,834
2023-01-23T17:06:24.779Z,823
2023-01-23T17:11:43.624Z,821
2023-01-23T17:17:01.863Z,824
2023-01-23T17:22:21.168Z,821
2023-01-23T17:27:45.094Z,824
2023-01-23T17:33:29.443Z,823
2023-01-23T17:38:47.690Z,821
2023-01-23T17:44:06.525Z,819
2023-01-23T17:49:25.059Z,802
2023-01-23T17:54:34.995Z,797
2023-01-23T17:59:56.290Z,789
2023-01-23T18:05:05.240Z,787
2023-01-23T18:10:08.127Z,792
2023-01-23T18:15:27.024Z,778
2023-01-23T18:20:29.439Z,769
2023-01-23T18:25:32.061Z,763
2023-01-23T18:30:50.605Z,755
2023-01-23T18:36:09.137Z,754
2023-01-23T18:41:27.813Z,963
2023-01-23T18:46:46.098Z,833
2023-01-23T18:52:04.719Z,796
2023-01-23T18:57:23.204Z,784
2023-01-23T19:02:41.704Z,785
2023-01-23T19:08:00.434Z,782
2023-01-23T19:13:18.883Z,783
2023-01-23T19:18:40.255Z,790
2023-01-23T19:23:59.368Z,793
2023-01-23T19:29:23.029Z,781
2023-01-23T19:34:42.311Z,775
2023-01-23T19:40:00.694Z,772
2023-01-23T19:45:19.541Z,775
2023-01-23T19:50:38.978Z,770
2023-01-23T19:55:57.262Z,776
2023-01-23T20:01:16.347Z,778
2023-01-23T20:06:34.956Z,788
2023-01-23T20:11:38.606Z,803
2023-01-23T20:16:57.323Z,799
2023-01-23T20:22:16.092Z,797
2023-01-23T20:27:34.708Z,817
2023-01-23T20:32:53.100Z,818
2023-01-23T20:38:13.212Z,815
2023-01-23T20:43:34.463Z,825
2023-01-23T20:48:53.164Z,830
2023-01-23T20:54:11.890Z,830
2023-01-23T20:59:31.779Z,834
2023-01-23T21:04:50.599Z,841
2023-01-23T21:10:08.812Z,855
2023-01-23T21:15:28.127Z,887
2023-01-23T21:20:49.434Z,891
2023-01-23T21:26:07.861Z,903
2023-01-23T21:31:26.578Z,942
2023-01-23T21:36:45.685Z,987
2023-01-23T21:42:04.486Z,1011
2023-01-23T21:47:23.618Z,1049
2023-01-23T21:52:45.354Z,1067
2023-01-23T21:58:03.988Z,1072
2023-01-23T22:03:22.593Z,1079
2023-01-23T22:08:41.552Z,1086
2023-01-23T22:14:00.454Z,1094
2023-01-23T22:19:18.804Z,1107
2023-01-23T22:24:37.176Z,1115
2023-01-23T22:29:55.647Z,1124
2023-01-23T22:35:14.275Z,1127
2023-01-23T22:40:32.639Z,1121
2023-01-23T22:45:51.312Z,1127
2023-01-23T22:51:09.924Z,1125
2023-01-23T22:56:28.268Z,1128
2023-01-23T23:01:46.902Z,1131
2023-01-23T23:07:05.751Z,1125
2023-01-23T23:12:24.227Z,1131
2023-01-23T23:17:42.821Z,1132
2023-01-23T23:23:01.300Z,1134
2023-01-23T23:28:19.719Z,1132
2023-01-23T23:33:38.339Z,1135
2023-01-23T23:38:41.051Z,1146
2023-01-23T23:43:59.644Z,1142
2023-01-23T23:49:17.991Z,1143
2023-01-23T23:54:36.935Z,1148
2023-01-23T23:59:55.477Z,1157
